createdAt,value
2022-10-13T00:00:49.349Z,3.08
2022-10-13T00:03:16.811Z,3.10
2022-10-13T00:05:48.477Z,3.14
2022-10-13T00:08:21.266Z,3.15
2022-10-13T00:10:49.313Z,3.18
2022-10-13T00:13:20.492Z,3.16
2022-10-13T00:15:48.032Z,3.20
2022-10-13T00:18:15.912Z,3.24
2022-10-13T00:20:45.265Z,3.31
2022-10-13T00:23:13.993Z,3.37
2022-10-13T00:25:45.157Z,3.41
2022-10-13T00:28:13.225Z,3.39
2022-10-13T00:30:41.135Z,3.40
2022-10-13T00:33:08.356Z,3.36
2022-10-13T00:35:47.574Z,3.36
2022-10-13T00:38:19.285Z,3.38
2022-10-13T00:40:50.407Z,3.42
2022-10-13T00:43:19.209Z,3.46
2022-10-13T00:45:49.853Z,3.45
2022-10-13T00:48:24.120Z,3.45
2022-10-13T00:50:51.561Z,3.45
2022-10-13T00:53:21.702Z,3.43
2022-10-13T00:55:50.586Z,3.41
2022-10-13T00:58:19.790Z,3.32
2022-10-13T01:00:49.183Z,3.23
2022-10-13T01:03:17.705Z,3.13
2022-10-13T01:05:45.667Z,3.06
2022-10-13T01:08:15.018Z,3.01
2022-10-13T01:10:50.492Z,2.97
2022-10-13T01:13:26.047Z,2.91
2022-10-13T01:16:02.410Z,2.90
2022-10-13T01:18:57.071Z,2.90
2022-10-13T01:21:42.054Z,2.93
2022-10-13T01:24:40.478Z,2.96
2022-10-13T01:27:28.591Z,2.96
2022-10-13T01:30:20.792Z,3.03
2022-10-13T01:33:10.335Z,3.06
2022-10-13T01:35:50.174Z,3.08
2022-10-13T01:38:35.089Z,3.16
2022-10-13T01:41:19.952Z,3.22
2022-10-13T01:44:10.127Z,3.34
2022-10-13T01:46:38.707Z,3.42
2022-10-13T01:49:13.993Z,3.52
2022-10-13T01:51:42.197Z,3.63
2022-10-13T01:54:09.151Z,3.75
2022-10-13T01:56:36.142Z,3.87
2022-10-13T01:59:07.859Z,4.00
2022-10-13T02:01:55.983Z,4.13
2022-10-13T02:05:08.017Z,4.27
2022-10-13T02:07:45.519Z,4.36
2022-10-13T02:10:22.407Z,4.45
2022-10-13T02:13:02.618Z,4.51
2022-10-13T02:15:35.566Z,4.58
2022-10-13T02:18:08.699Z,4.66
2022-10-13T02:20:36.921Z,4.73
2022-10-13T02:23:10.152Z,4.80
2022-10-13T02:25:37.488Z,4.85
2022-10-13T02:28:05.497Z,4.90
2022-10-13T02:30:35.916Z,4.95
2022-10-13T02:33:03.516Z,4.98
2022-10-13T02:35:31.067Z,5.03
2022-10-13T02:38:00.603Z,5.08
2022-10-13T02:40:28.060Z,5.14
2022-10-13T02:42:54.919Z,5.17
2022-10-13T02:45:21.614Z,5.21
2022-10-13T02:47:49.934Z,5.25
2022-10-13T02:50:16.867Z,5.30
2022-10-13T02:52:43.618Z,5.34
2022-10-13T02:55:10.491Z,5.39
2022-10-13T02:57:37.915Z,5.42
2022-10-13T03:00:07.217Z,5.46
2022-10-13T03:02:34.184Z,5.49
2022-10-13T03:05:00.897Z,5.52
2022-10-13T03:07:27.589Z,5.54
2022-10-13T03:09:54.317Z,5.57
2022-10-13T03:12:21.517Z,5.60
2022-10-13T03:14:48.488Z,5.61
2022-10-13T03:17:15.207Z,5.63
2022-10-13T03:19:42.026Z,5.66
2022-10-13T03:22:14.681Z,5.68
2022-10-13T03:24:42.489Z,5.71
2022-10-13T03:27:09.456Z,5.72
2022-10-13T03:29:36.196Z,5.73
2022-10-13T03:32:03.214Z,5.72
2022-10-13T03:34:30.166Z,5.72
2022-10-13T03:36:57.929Z,5.74
2022-10-13T03:39:24.990Z,5.77
2022-10-13T03:41:51.731Z,5.78
2022-10-13T03:44:18.726Z,5.79
2022-10-13T03:46:45.541Z,5.81
2022-10-13T03:49:12.527Z,5.81
2022-10-13T03:51:39.403Z,5.84
2022-10-13T03:54:06.178Z,5.86
2022-10-13T03:56:33.327Z,5.89
2022-10-13T03:59:01.498Z,5.90
2022-10-13T04:01:30.247Z,5.93
2022-10-13T04:03:58.411Z,5.94
2022-10-13T04:06:26.458Z,5.96
2022-10-13T04:08:53.525Z,5.98
2022-10-13T04:11:21.155Z,6.01
2022-10-13T04:13:51.947Z,6.04
2022-10-13T04:16:24.627Z,5.96
2022-10-13T04:19:00.517Z,6.04
2022-10-13T04:21:28.425Z,5.95
2022-10-13T04:23:57.342Z,5.97
2022-10-13T04:26:26.507Z,5.99
2022-10-13T04:28:54.603Z,6.04
2022-10-13T04:31:23.172Z,6.08
2022-10-13T04:33:50.837Z,6.16
2022-10-13T04:36:18.988Z,6.23
2022-10-13T04:38:47.808Z,6.30
2022-10-13T04:41:16.589Z,6.34
2022-10-13T04:43:43.642Z,6.40
2022-10-13T04:46:14.498Z,6.46
2022-10-13T04:48:41.918Z,6.50
2022-10-13T04:51:11.782Z,6.56
2022-10-13T04:53:39.237Z,6.63
2022-10-13T04:56:15.921Z,6.69
2022-10-13T04:58:44.698Z,6.74
2022-10-13T05:01:21.880Z,6.81
2022-10-13T05:03:54.349Z,6.86
2022-10-13T05:06:25.125Z,6.93
2022-10-13T05:08:56.158Z,7.00
2022-10-13T05:11:25.508Z,7.08
2022-10-13T05:13:52.774Z,7.16
2022-10-13T05:16:21.216Z,7.25
2022-10-13T05:18:49.767Z,7.35
2022-10-13T05:21:25.147Z,7.47
2022-10-13T05:23:56.011Z,7.56
2022-10-13T05:26:29.290Z,7.68
2022-10-13T05:28:57.285Z,7.77
2022-10-13T05:31:27.750Z,7.84
2022-10-13T05:33:56.739Z,7.95
2022-10-13T05:36:26.309Z,8.01
2022-10-13T05:38:56.347Z,8.09
2022-10-13T05:41:24.608Z,8.13
2022-10-13T05:43:57.293Z,8.20
2022-10-13T05:46:24.290Z,8.26
2022-10-13T05:48:51.201Z,8.32
2022-10-13T05:51:22.863Z,8.37
2022-10-13T05:53:57.691Z,8.43
2022-10-13T05:56:30.020Z,8.48
2022-10-13T05:59:01.806Z,8.50
2022-10-13T06:01:32.952Z,8.57
2022-10-13T06:04:04.774Z,8.66
2022-10-13T06:06:31.920Z,8.73
2022-10-13T06:09:00.022Z,8.81
2022-10-13T06:11:27.244Z,8.87
2022-10-13T06:13:53.958Z,8.96
2022-10-13T06:16:20.789Z,9.03
2022-10-13T06:18:47.995Z,9.09
2022-10-13T06:21:14.842Z,9.14
2022-10-13T06:23:41.546Z,9.25
2022-10-13T06:26:09.138Z,9.34
2022-10-13T06:28:37.164Z,9.45
2022-10-13T06:31:06.606Z,9.58
2022-10-13T06:33:34.147Z,9.64
2022-10-13T06:36:03.313Z,9.68
2022-10-13T06:38:30.378Z,9.79
2022-10-13T06:41:05.077Z,9.89
2022-10-13T06:43:39.627Z,9.98
2022-10-13T06:46:10.863Z,10.13
2022-10-13T06:48:38.075Z,10.24
2022-10-13T06:51:07.230Z,10.37
2022-10-13T06:53:34.308Z,10.51
2022-10-13T06:56:02.785Z,10.68
2022-10-13T06:58:29.735Z,10.80
2022-10-13T07:00:57.005Z,10.93
2022-10-13T07:03:25.120Z,11.09
2022-10-13T07:05:52.140Z,11.22
2022-10-13T07:08:19.473Z,11.39
2022-10-13T07:10:46.930Z,11.54
2022-10-13T07:13:13.960Z,11.70
2022-10-13T07:15:41.171Z,11.85
2022-10-13T07:18:08.225Z,11.96
2022-10-13T07:20:35.325Z,12.09
2022-10-13T07:23:02.931Z,12.23
2022-10-13T07:25:30.122Z,12.41
2022-10-13T07:27:59.089Z,12.58
2022-10-13T07:30:26.667Z,12.78
2022-10-13T07:32:53.410Z,12.94
2022-10-13T07:35:20.359Z,13.08
2022-10-13T07:37:47.150Z,13.24
2022-10-13T07:40:14.019Z,13.39
2022-10-13T07:42:41.013Z,13.55
2022-10-13T07:45:08.340Z,13.69
2022-10-13T07:47:35.151Z,13.84
2022-10-13T07:50:02.144Z,14.00
2022-10-13T07:52:29.052Z,14.21
2022-10-13T07:54:56.041Z,14.41
2022-10-13T07:57:26.837Z,14.55
2022-10-13T07:59:54.144Z,14.65
2022-10-13T08:02:21.245Z,14.78
2022-10-13T08:04:48.603Z,14.92
2022-10-13T08:07:17.059Z,15.05
2022-10-13T08:09:45.009Z,15.23
2022-10-13T08:12:12.311Z,15.45
2022-10-13T08:14:39.146Z,15.63
2022-10-13T08:17:08.107Z,15.77
2022-10-13T08:19:34.939Z,15.93
2022-10-13T08:22:01.899Z,16.02
2022-10-13T08:24:29.667Z,16.22
2022-10-13T08:26:56.584Z,16.37
2022-10-13T08:29:24.341Z,16.49
2022-10-13T08:31:53.559Z,16.67
2022-10-13T08:34:22.480Z,16.83
2022-10-13T08:36:53.030Z,17.01
2022-10-13T08:39:21.464Z,17.20
2022-10-13T08:41:48.639Z,17.39
2022-10-13T08:45:02.544Z,17.49
2022-10-13T08:47:29.581Z,17.70
2022-10-13T08:50:07.454Z,17.90
2022-10-13T08:52:47.052Z,18.08
2022-10-13T08:55:38.703Z,18.25
2022-10-13T08:58:27.629Z,18.45
2022-10-13T09:01:35.936Z,18.61
2022-10-13T09:04:09.021Z,18.73
2022-10-13T09:06:51.771Z,18.82
2022-10-13T09:09:18.782Z,18.88
2022-10-13T09:11:48.215Z,18.95
2022-10-13T09:14:22.952Z,19.15
2022-10-13T09:16:51.332Z,19.34
2022-10-13T09:19:26.146Z,19.54
2022-10-13T09:21:56.134Z,19.72
2022-10-13T09:24:25.484Z,19.82
2022-10-13T09:27:05.567Z,19.99
2022-10-13T09:29:34.629Z,20.12
2022-10-13T09:32:18.411Z,20.29
2022-10-13T09:34:46.495Z,20.43
2022-10-13T09:37:25.735Z,20.54
2022-10-13T09:40:19.730Z,20.62
2022-10-13T09:42:53.727Z,20.58
2022-10-13T09:45:24.122Z,20.51
2022-10-13T09:48:05.725Z,20.45
2022-10-13T09:50:35.483Z,20.41
2022-10-13T09:53:26.916Z,20.27
2022-10-13T09:56:25.671Z,20.15
2022-10-13T09:59:04.408Z,20.09
2022-10-13T10:01:37.988Z,20.05
2022-10-13T10:04:10.181Z,19.99
2022-10-13T10:06:40.306Z,19.98
2022-10-13T10:09:27.925Z,19.92
2022-10-13T10:11:57.807Z,19.86
2022-10-13T10:14:33.202Z,19.87
2022-10-13T10:17:19.085Z,19.97
2022-10-13T10:19:52.009Z,20.05
2022-10-13T10:22:21.843Z,20.11
2022-10-13T10:25:10.087Z,20.18
2022-10-13T10:27:43.770Z,20.29
2022-10-13T10:30:18.606Z,20.41
2022-10-13T10:32:59.357Z,20.42
2022-10-13T10:36:17.266Z,20.53
2022-10-13T10:38:50.692Z,20.48
2022-10-13T10:41:58.869Z,20.57
2022-10-13T10:44:32.240Z,20.56
2022-10-13T10:47:06.955Z,20.44
2022-10-13T10:49:36.864Z,20.41
2022-10-13T10:52:08.703Z,20.43
2022-10-13T10:55:15.206Z,20.45
2022-10-13T10:57:57.905Z,20.42
2022-10-13T11:00:25.007Z,20.41
2022-10-13T11:03:26.545Z,20.36
2022-10-13T11:05:59.259Z,20.32
2022-10-13T11:08:47.129Z,20.26
2022-10-13T11:11:24.798Z,20.27
2022-10-13T11:14:25.117Z,20.28
2022-10-13T11:17:06.964Z,20.26
2022-10-13T11:19:40.077Z,20.31
2022-10-13T11:22:06.804Z,20.41
2022-10-13T11:24:38.800Z,20.44
2022-10-13T11:27:09.225Z,19.76
2022-10-13T11:29:49.132Z,19.81
2022-10-13T11:32:28.070Z,19.98
2022-10-13T11:35:06.906Z,20.07
2022-10-13T11:38:06.935Z,20.14
2022-10-13T11:41:01.279Z,20.18
2022-10-13T11:44:15.413Z,20.16
2022-10-13T11:47:40.414Z,20.30
2022-10-13T11:50:19.381Z,20.41
2022-10-13T11:52:58.133Z,20.58
2022-10-13T11:55:30.985Z,20.48
2022-10-13T11:58:13.724Z,20.65
2022-10-13T12:00:51.062Z,20.79
2022-10-13T12:03:46.973Z,20.93
2022-10-13T12:06:33.495Z,21.03
2022-10-13T12:09:03.317Z,21.14
2022-10-13T12:11:33.783Z,21.19
2022-10-13T12:14:01.569Z,21.21
2022-10-13T12:16:29.676Z,21.12
2022-10-13T12:19:23.102Z,21.10
2022-10-13T12:21:55.997Z,21.18
2022-10-13T12:24:24.918Z,21.15
2022-10-13T12:26:52.804Z,21.17
2022-10-13T12:29:24.706Z,21.11
2022-10-13T12:31:52.381Z,21.07
2022-10-13T12:34:30.036Z,20.98
2022-10-13T12:37:00.842Z,20.86
2022-10-13T12:39:31.152Z,20.73
2022-10-13T12:41:59.784Z,20.49
2022-10-13T12:44:29.332Z,20.19
2022-10-13T12:46:59.203Z,19.88
2022-10-13T12:49:31.838Z,19.73
2022-10-13T12:52:06.541Z,19.70
2022-10-13T12:54:36.654Z,19.71
2022-10-13T12:57:18.667Z,19.67
2022-10-13T12:59:45.597Z,19.70
2022-10-13T13:02:28.824Z,19.75
2022-10-13T13:04:56.168Z,19.78
2022-10-13T13:07:34.964Z,19.81
2022-10-13T13:10:07.507Z,19.78
2022-10-13T13:12:36.687Z,19.73
2022-10-13T13:15:31.869Z,19.67
2022-10-13T13:18:26.701Z,19.44
2022-10-13T13:20:54.435Z,19.26
2022-10-13T13:23:23.379Z,19.09
2022-10-13T13:26:03.472Z,18.86
2022-10-13T13:28:32.472Z,18.65
2022-10-13T13:31:03.233Z,18.43
2022-10-13T13:33:30.106Z,18.23
2022-10-13T13:35:58.745Z,18.05
2022-10-13T13:38:25.617Z,17.87
2022-10-13T13:40:52.407Z,17.68
2022-10-13T13:43:19.203Z,17.52
2022-10-13T13:45:46.177Z,17.35
2022-10-13T13:48:13.299Z,17.18
2022-10-13T13:50:40.572Z,17.03
2022-10-13T13:53:07.589Z,16.91
2022-10-13T13:55:34.755Z,16.78
2022-10-13T13:58:04.097Z,16.67
2022-10-13T14:00:30.837Z,16.53
2022-10-13T14:02:57.855Z,16.35
2022-10-13T14:05:24.695Z,16.13
2022-10-13T14:07:54.031Z,15.89
2022-10-13T14:10:20.771Z,15.66
2022-10-13T14:12:47.518Z,15.41
2022-10-13T14:15:14.315Z,15.17
2022-10-13T14:17:41.167Z,14.94
2022-10-13T14:20:08.344Z,14.71
2022-10-13T14:22:38.863Z,14.52
2022-10-13T14:25:07.242Z,14.33
2022-10-13T14:27:35.202Z,14.17
2022-10-13T14:30:02.760Z,14.01
2022-10-13T14:32:29.619Z,13.88
2022-10-13T14:34:56.474Z,13.73
2022-10-13T14:37:25.076Z,13.65
2022-10-13T14:39:54.631Z,13.57
2022-10-13T14:42:21.851Z,13.50
2022-10-13T14:44:48.647Z,13.45
2022-10-13T14:47:15.463Z,13.40
2022-10-13T14:49:42.298Z,13.37
2022-10-13T14:52:09.941Z,13.32
2022-10-13T14:54:40.014Z,13.25
2022-10-13T14:57:09.269Z,13.21
2022-10-13T14:59:36.057Z,13.16
2022-10-13T15:02:02.917Z,13.09
2022-10-13T15:04:29.669Z,13.05
2022-10-13T15:06:56.422Z,12.97
2022-10-13T15:09:33.424Z,12.91
2022-10-13T15:12:13.296Z,12.80
2022-10-13T15:14:40.115Z,12.71
2022-10-13T15:17:06.880Z,12.63
2022-10-13T15:19:33.759Z,12.53
2022-10-13T15:22:00.588Z,12.44
2022-10-13T15:24:27.447Z,12.34
2022-10-13T15:26:55.507Z,12.22
2022-10-13T15:29:26.668Z,12.09
2022-10-13T15:32:08.357Z,11.95
2022-10-13T15:34:35.451Z,11.78
2022-10-13T15:37:02.191Z,11.64
2022-10-13T15:39:28.986Z,11.48
2022-10-13T15:41:56.246Z,11.32
2022-10-13T15:44:26.470Z,11.15
2022-10-13T15:47:07.437Z,11.00
2022-10-13T15:49:39.373Z,10.81
2022-10-13T15:52:06.230Z,10.68
2022-10-13T15:54:33.190Z,10.57
2022-10-13T15:57:00.376Z,10.44
2022-10-13T15:59:27.190Z,10.34
2022-10-13T16:01:53.984Z,10.27
2022-10-13T16:04:20.732Z,10.20
2022-10-13T16:06:47.570Z,10.16
2022-10-13T16:09:14.396Z,10.13
2022-10-13T16:11:41.734Z,10.11
2022-10-13T16:14:08.937Z,10.11
2022-10-13T16:16:35.658Z,10.10
2022-10-13T16:19:02.501Z,10.09
2022-10-13T16:21:29.309Z,10.07
2022-10-13T16:23:56.840Z,10.06
2022-10-13T16:26:23.993Z,10.02
2022-10-13T16:28:54.439Z,9.98
2022-10-13T16:31:21.372Z,9.91
2022-10-13T16:33:48.483Z,9.83
2022-10-13T16:36:17.553Z,9.77
2022-10-13T16:38:46.620Z,9.69
2022-10-13T16:41:16.925Z,9.59
2022-10-13T16:43:45.051Z,9.51
2022-10-13T16:46:13.972Z,9.42
2022-10-13T16:48:42.023Z,9.35
2022-10-13T16:51:12.383Z,9.28
2022-10-13T16:53:39.456Z,9.24
2022-10-13T16:56:07.908Z,9.17
2022-10-13T16:58:35.611Z,9.13
2022-10-13T17:01:06.126Z,9.08
2022-10-13T17:03:33.011Z,9.04
2022-10-13T17:05:59.770Z,9.02
2022-10-13T17:08:26.642Z,8.98
2022-10-13T17:10:58.048Z,8.94
2022-10-13T17:13:25.156Z,8.90
2022-10-13T17:15:53.429Z,8.87
2022-10-13T17:18:20.929Z,8.84
2022-10-13T17:21:15.338Z,8.82
2022-10-13T17:23:47.517Z,8.78
2022-10-13T17:26:17.013Z,8.75
2022-10-13T17:28:44.517Z,8.74
2022-10-13T17:31:18.068Z,8.73
2022-10-13T17:33:45.603Z,8.72
2022-10-13T17:36:13.862Z,8.71
2022-10-13T17:38:41.141Z,8.72
2022-10-13T17:41:10.110Z,8.73
2022-10-13T17:43:43.551Z,8.76
2022-10-13T17:46:35.720Z,8.80
2022-10-13T17:49:02.776Z,8.83
2022-10-13T17:51:29.634Z,8.88
2022-10-13T17:53:58.944Z,8.93
2022-10-13T17:56:25.936Z,8.98
2022-10-13T17:58:53.167Z,9.00
2022-10-13T18:01:38.599Z,9.03
2022-10-13T18:04:09.976Z,9.04
2022-10-13T18:06:41.207Z,9.04
2022-10-13T18:09:11.553Z,9.04
2022-10-13T18:11:40.053Z,9.05
2022-10-13T18:14:07.549Z,9.04
2022-10-13T18:16:35.736Z,9.05
2022-10-13T18:19:04.592Z,9.02
2022-10-13T18:21:31.973Z,8.99
2022-10-13T18:24:01.322Z,8.94
2022-10-13T18:26:37.742Z,8.87
2022-10-13T18:29:06.862Z,8.81
2022-10-13T18:31:35.927Z,8.75
2022-10-13T18:34:06.110Z,8.70
2022-10-13T18:36:55.111Z,8.68
2022-10-13T18:39:31.800Z,8.67
2022-10-13T18:41:58.748Z,8.67
2022-10-13T18:44:34.052Z,8.68
2022-10-13T18:47:00.939Z,8.70
2022-10-13T18:49:33.392Z,8.73
2022-10-13T18:52:01.699Z,8.75
2022-10-13T18:54:29.035Z,8.79
2022-10-13T18:56:56.043Z,8.84
2022-10-13T18:59:22.916Z,8.89
2022-10-13T19:01:50.155Z,8.95
2022-10-13T19:04:17.080Z,9.01
2022-10-13T19:06:44.729Z,9.07
2022-10-13T19:09:13.836Z,9.13
2022-10-13T19:11:40.993Z,9.18
2022-10-13T19:14:11.385Z,9.24
2022-10-13T19:16:40.849Z,9.29
2022-10-13T19:19:10.764Z,9.36
2022-10-13T19:21:38.680Z,9.40
2022-10-13T19:24:06.652Z,9.42
2022-10-13T19:26:35.113Z,9.44
2022-10-13T19:29:11.748Z,9.48
2022-10-13T19:31:40.199Z,9.50
2022-10-13T19:34:07.838Z,9.52
2022-10-13T19:36:37.817Z,9.54
2022-10-13T19:39:13.301Z,9.56
2022-10-13T19:41:40.628Z,9.58
2022-10-13T19:44:07.385Z,9.61
2022-10-13T19:46:39.726Z,9.62
2022-10-13T19:49:07.356Z,9.65
2022-10-13T19:51:35.610Z,9.67
2022-10-13T19:54:02.499Z,9.68
2022-10-13T19:56:34.269Z,9.72
2022-10-13T19:59:04.565Z,9.74
2022-10-13T20:01:32.325Z,9.75
2022-10-13T20:03:59.872Z,9.76
2022-10-13T20:06:26.693Z,9.74
2022-10-13T20:08:53.468Z,9.72
2022-10-13T20:11:24.061Z,9.74
2022-10-13T20:13:52.849Z,9.72
2022-10-13T20:16:22.393Z,9.71
2022-10-13T20:18:54.638Z,9.66
2022-10-13T20:21:21.879Z,9.63
2022-10-13T20:23:49.444Z,9.60
2022-10-13T20:26:17.404Z,9.57
2022-10-13T20:28:45.703Z,9.53
2022-10-13T20:31:13.738Z,9.48
2022-10-13T20:33:41.211Z,9.44
2022-10-13T20:36:12.385Z,9.39
2022-10-13T20:38:39.808Z,9.36
2022-10-13T20:41:07.443Z,9.33
2022-10-13T20:43:35.090Z,9.32
2022-10-13T20:46:05.760Z,9.28
2022-10-13T20:48:57.740Z,9.24
2022-10-13T20:51:23.371Z,9.21
2022-10-13T20:53:50.457Z,9.17
2022-10-13T20:56:24.110Z,9.14
2022-10-13T20:58:51.677Z,9.12
2022-10-13T21:01:20.532Z,9.11
2022-10-13T21:03:51.954Z,9.09
2022-10-13T21:06:18.843Z,9.08
2022-10-13T21:08:46.671Z,9.10
2022-10-13T21:11:16.018Z,9.09
2022-10-13T21:13:44.637Z,9.11
2022-10-13T21:16:14.508Z,9.14
2022-10-13T21:18:44.518Z,9.14
2022-10-13T21:21:12.094Z,9.16
2022-10-13T21:23:40.333Z,9.17
2022-10-13T21:26:09.906Z,9.18
2022-10-13T21:28:38.692Z,9.20
2022-10-13T21:31:10.761Z,9.21
2022-10-13T21:33:39.039Z,9.21
2022-10-13T21:36:11.364Z,9.18
2022-10-13T21:38:39.588Z,9.18
2022-10-13T21:41:07.797Z,9.17
2022-10-13T21:43:34.905Z,9.16
2022-10-13T21:46:29.353Z,9.15
2022-10-13T21:48:58.628Z,9.11
2022-10-13T21:51:37.698Z,9.11
2022-10-13T21:54:10.755Z,9.10
2022-10-13T21:56:39.580Z,9.09
2022-10-13T21:59:07.020Z,9.09
2022-10-13T22:01:34.369Z,9.07
2022-10-13T22:04:02.663Z,9.06
2022-10-13T22:06:31.503Z,9.06
2022-10-13T22:09:00.215Z,9.03
2022-10-13T22:11:30.249Z,9.00
2022-10-13T22:13:58.206Z,8.98
2022-10-13T22:16:33.809Z,8.92
2022-10-13T22:19:00.582Z,8.87
2022-10-13T22:21:29.959Z,8.81
2022-10-13T22:23:58.491Z,8.75
2022-10-13T22:26:25.955Z,8.70
2022-10-13T22:28:52.827Z,8.65
2022-10-13T22:31:20.153Z,8.59
2022-10-13T22:33:47.780Z,8.50
2022-10-13T22:36:17.744Z,8.44
2022-10-13T22:38:46.385Z,8.35
2022-10-13T22:41:14.860Z,8.27
2022-10-13T22:43:44.142Z,8.19
2022-10-13T22:46:15.619Z,8.10
2022-10-13T22:48:42.533Z,8.02
2022-10-13T22:51:10.607Z,7.98
2022-10-13T22:53:37.779Z,7.92
2022-10-13T22:56:10.080Z,7.88
2022-10-13T22:58:36.877Z,7.81
2022-10-13T23:01:08.689Z,7.76
2022-10-13T23:03:36.350Z,7.70
2022-10-13T23:06:04.241Z,7.65
2022-10-13T23:08:31.035Z,7.61
2022-10-13T23:10:58.071Z,7.53
2022-10-13T23:13:25.503Z,7.45
2022-10-13T23:15:53.648Z,7.39
2022-10-13T23:18:24.632Z,7.31
2022-10-13T23:20:56.523Z,7.21
2022-10-13T23:23:25.661Z,7.08
2022-10-13T23:25:52.479Z,6.97
2022-10-13T23:28:19.307Z,6.86
2022-10-13T23:30:46.057Z,6.79
2022-10-13T23:33:12.796Z,6.67
2022-10-13T23:35:39.786Z,6.56
2022-10-13T23:38:06.482Z,6.48
2022-10-13T23:40:34.782Z,6.35
2022-10-13T23:43:01.974Z,6.24
2022-10-13T23:45:29.183Z,6.16
2022-10-13T23:47:55.880Z,6.05
2022-10-13T23:50:23.346Z,5.95
2022-10-13T23:52:50.168Z,5.87
2022-10-13T23:55:17.838Z,5.80
2022-10-13T23:57:44.646Z,5.72
